Wednesday, February 22, 2017, 12:27 PM EST

KRIC, Richmond International Airport

Location: Sandston, VA, United States Lat: 37.517
Local Time: 12:27 PM EST (17:27 GMT) Lon: -77.317
Time Zone: US/Eastern Elev: 167 ft

Show me the last for .
Show Decoded

2017-02-22 12:19 METAR KRIC 221719Z 20009KT 2 1/2SM R34/5500VP6000FT -RA BR OVC038 12/12 A3000
                 RMK AO2 P0000 T01220117 =
2017-02-22 11:54 METAR KRIC 221654Z 22009KT 3SM -RA BR OVC047 13/11 A3001 RMK AO2 RAB50 SLP168
                 P0000 T01330106 =
2017-02-22 10:54 METAR KRIC 221554Z 25005KT 10SM SCT029 BKN044 OVC090 13/09 A3003 RMK AO2 SLP175
                 T01330089 =
2017-02-22 10:20 METAR KRIC 221520Z 26005KT 10SM SCT029 BKN042 OVC090 12/08 A3005 =
2017-02-22 09:54 METAR KRIC 221454Z 26006KT 10SM BKN029 BKN038 OVC090 11/08 A3005 RMK AO2 SLP181
                 T01110078 50002 =
2017-02-22 09:22 METAR KRIC 221422Z 25004KT 10SM BKN029 BKN040 OVC090 11/07 A3006 RMK AO2
                 T01060072 =
2017-02-22 08:54 METAR KRIC 221354Z 23005KT 10SM FEW030 SCT040 BKN090 OVC300 09/07 A3005 RMK AO2
                 SLP183 T00940067 =
2017-02-22 07:54 METAR KRIC 221254Z 21004KT 10SM FEW027 BKN037 BKN180 OVC300 08/06 A3006 RMK AO2
                 SLP184 T00780061 =
2017-02-22 06:54 METAR KRIC 221154Z 00000KT 10SM SCT030 OVC180 07/05 A3004 RMK AO2 SLP179
                 T00670050 10067 20033 55000 =
2017-02-22 05:54 METAR KRIC 221054Z 00000KT 10SM BKN032 OVC180 06/05 A3004 RMK AO2 SLP179
                 T00560050 =
2017-02-22 04:54 METAR KRIC 220954Z 00000KT 10SM FEW007 OVC180 06/05 A3004 RMK AO2 SLP178
                 T00610050 =
2017-02-22 04:32 METAR KRIC 220932Z 00000KT 10SM FEW007 OVC180 06/05 A3005 RMK AO2 T00610050 =
2017-02-22 03:54 METAR KRIC 220854Z 00000KT 10SM FEW170 BKN220 06/04 A3004 RMK AO2 SLP178
                 T00610044 56024 =
2017-02-22 02:54 METAR KRIC 220754Z 17003KT 10SM FEW170 BKN220 06/04 A3006 RMK AO2 SLP182
                 T00560039 =
2017-02-22 01:54 METAR KRIC 220654Z 15004KT 10SM SCT160 BKN220 04/03 A3008 RMK AO2 SLP191
                 T00440033 =
2017-02-22 00:54 METAR KRIC 220554Z 01003KT 10SM BKN250 06/04 A3011 RMK AO2 SLP202 T00610039
                 10106 20061 55014 =
2017-02-21 23:54 METAR KRIC 220454Z 14003KT 10SM BKN250 06/04 A3011 RMK AO2 SLP201 T00610039
                 401500039 =
2017-02-21 22:54 METAR KRIC 220354Z 14004KT 10SM BKN300 07/04 A3013 RMK AO2 SLP207 T00670039 =
2017-02-21 21:54 METAR KRIC 220254Z 14006KT 10SM BKN300 07/03 A3015 RMK AO2 SLP217 T00720033
                 58006 =
2017-02-21 20:54 METAR KRIC 220154Z 14006KT 10SM BKN300 08/03 A3017 RMK AO2 SLP222 T00780033 =
2017-02-21 19:54 METAR KRIC 220054Z 13008KT 10SM BKN300 09/03 A3018 RMK AO2 SLP224 T00890033 =
2017-02-21 18:54 METAR KRIC 212354Z 12007KT 10SM FEW250 OVC300 11/03 A3017 RMK AO2 SLP223
                 T01060028 10150 20106 53001 =
2017-02-21 17:54 METAR KRIC 212254Z 14006KT 10SM SCT250 OVC300 12/02 A3017 RMK AO2 SLP224
                 T01170017 =
2017-02-21 16:54 METAR KRIC 212154Z 15008KT 10SM OVC300 14/02 A3017 RMK AO2 SLP220 T01390022 =
2017-02-21 15:54 METAR KRIC 212054Z 13011KT 10SM OVC300 15/03 A3017 RMK AO2 SLP221 T01500028
                 56025 =
2017-02-21 14:54 METAR KRIC 211954Z 13009KT 10SM OVC300 14/02 A3019 RMK AO2 SLP228 T01440022 =
2017-02-21 13:54 METAR KRIC 211854Z 15006KT 10SM FEW080 OVC300 14/00 A3022 RMK AO2 SLP236
                 T01440000 =
2017-02-21 12:54 METAR KRIC 211754Z 19004KT 10SM OVC300 13/02 A3024 RMK AO2 SLP246 T01330022
                 10139 20039 58029 =

Support USWX by starting your Amazon purchase here.